CYYF

Penticton Airport

Penticton, , Canada
METAR CYYF 242100Z 02006KT 15SM SCT070 SCT140 19/06 A3018 RMK CU3AC1 VIRGA SLP224 DENSITY ALT 1600FT
Observed Flight Rules
Sep-24 @ 21:00 UTC (22 minutes ago) Visual Flight Rules
Wind Visibility Clouds
20° at 6 knots 15 miles
  • Scattered at 7,000' AGL
  • Scattered at 14,000' AGL
Temperatures Readings
Current 19°C / 66°F
Dewpoint 6°C / 43°F
Humidity 43%
Altimeter 30.18" Hg
Pressure 1022.4 hPa
Elevation 344
METAR CYYF 242100Z 02006KT 15SM SCT070 SCT140 19/06 A3018 RMK CU3AC1 VIRGA SLP224 DENSITY ALT 1600FT
Observed Flight Rules
Sep-24 @ 21:00 UTC
(22 minutes ago)
VFR
Wind Visibility
20° at 6 knots 15 miles
Clouds
  • Scattered at 7,000' AGL
  • Scattered at 14,000' AGL
Temperature Dewpoint
19°C / 66°F 6°C / 43°F
Humidity Altimeter Pressure
43% 30.18" Hg 1022.4 hPa